Time;durP1;ratioP1;P1;durP2;ratioP2;P2;SDS_P1;SDS_P2;PMS_P1;PMS_P2;Temp;Humidity;BMP_temperature;BMP_pressure;BME280_temperature;BME280_humidity;BME280_pressure;Samples;Min_cycle;Max_cycle;Signal;HPM_P1;HPM_P2
2023/07/08 00:01:11;;;;;;;7.00;6.00;;;;;;;12.21;66.84;97865.42;105060;1257;96128;-81
2023/07/08 00:03:48;;;;;;;8.30;6.00;;;;;;;12.17;67.08;97864.13;105044;1256;95887;-81
2023/07/08 00:06:18;;;;;;;9.80;6.10;;;;;;;12.16;67.27;97868.29;105113;1258;95811;-81
2023/07/08 00:08:45;;;;;;;13.50;7.20;;;;;;;12.12;67.25;97872.33;105084;1259;101640;-81
2023/07/08 00:11:13;;;;;;;13.30;7.10;;;;;;;12.10;67.25;97873.94;105045;1253;97200;-81
2023/07/08 00:13:40;;;;;;;10.90;5.70;;;;;;;12.07;67.36;97876.73;105072;1258;96891;-81
2023/07/08 00:16:16;;;;;;;10.60;6.50;;;;;;;12.02;67.50;97874.33;105101;1258;96764;-81
2023/07/08 00:18:43;;;;;;;12.70;7.60;;;;;;;11.99;67.45;97872.66;105112;1253;109766;-81
2023/07/08 00:21:14;;;;;;;9.10;5.50;;;;;;;11.95;67.48;97872.05;105056;1275;95981;-81
2023/07/08 00:23:44;;;;;;;10.10;5.50;;;;;;;11.92;67.63;97871.05;105110;1257;100780;-81
2023/07/08 00:26:29;;;;;;;7.20;5.60;;;;;;;11.89;67.80;97869.77;105266;1258;95872;-81
2023/07/08 00:28:57;;;;;;;8.20;5.60;;;;;;;11.83;67.86;97870.85;105247;1255;95855;-82
2023/07/08 00:31:25;;;;;;;8.00;5.30;;;;;;;11.75;68.00;97871.69;104836;1260;95994;-82
2023/07/08 00:33:55;;;;;;;8.00;5.50;;;;;;;11.68;68.28;97871.01;105166;1252;100309;-81
2023/07/08 00:36:23;;;;;;;9.60;5.60;;;;;;;11.65;68.26;97870.30;104876;1261;110217;-82
2023/07/08 00:38:50;;;;;;;6.40;5.60;;;;;;;11.64;68.46;97869.71;105069;1257;95805;-81
2023/07/08 00:41:21;;;;;;;7.40;5.30;;;;;;;11.62;68.54;97873.95;105187;1259;95893;-81
2023/07/08 00:43:50;;;;;;;8.50;5.50;;;;;;;11.59;68.59;97867.95;105056;1258;101553;-81
2023/07/08 00:46:29;;;;;;;8.40;6.10;;;;;;;11.58;68.31;97866.60;105043;1253;108555;-81
2023/07/08 00:49:08;;;;;;;7.70;5.70;;;;;;;11.57;68.44;97868.17;104999;1269;107978;-81
2023/07/08 00:51:39;;;;;;;7.00;5.70;;;;;;;11.54;68.63;97868.59;105051;1257;96604;-81
2023/07/08 00:54:12;;;;;;;9.40;5.80;;;;;;;11.46;68.81;97868.03;104985;1260;96109;-82
2023/07/08 00:56:59;;;;;;;9.30;5.70;;;;;;;11.36;69.00;97865.48;105021;1257;99523;-81
2023/07/08 00:59:35;;;;;;;8.30;5.70;;;;;;;11.31;69.22;97863.02;105110;1253;102221;-81
2023/07/08 01:02:06;;;;;;;7.40;5.30;;;;;;;11.31;69.29;97860.73;105096;1252;98978;-82
2023/07/08 01:04:58;;;;;;;6.30;5.10;;;;;;;11.31;69.32;97859.90;105083;1258;95826;-81
2023/07/08 01:07:27;;;;;;;7.80;5.40;;;;;;;11.30;69.43;97859.18;105048;1256;97103;-81
2023/07/08 01:10:03;;;;;;;9.20;6.30;;;;;;;11.32;69.38;97854.08;104942;1261;101697;-81
2023/07/08 01:12:37;;;;;;;8.40;6.80;;;;;;;11.33;69.31;97852.92;105133;1257;100357;-81
2023/07/08 01:15:07;;;;;;;7.60;6.10;;;;;;;11.32;69.43;97854.17;105022;1254;100807;-81
2023/07/08 01:17:33;;;;;;;7.90;5.20;;;;;;;11.31;69.20;97852.80;105148;1254;95822;-81
2023/07/08 01:20:04;;;;;;;6.30;5.50;;;;;;;11.29;69.18;97854.16;105032;1256;96289;-81
2023/07/08 01:22:32;;;;;;;7.70;5.40;;;;;;;11.25;69.31;97855.77;105080;1258;101627;-82
2023/07/08 01:49:50;;;;;;;8.50;5.90;;;;;;;11.25;69.13;97858.14;102212;1302;636557;-82
2023/07/08 01:52:18;;;;;;;9.10;5.50;;;;;;;11.18;69.40;97858.62;104520;1268;95857;-82
2023/07/08 01:54:44;;;;;;;11.20;6.90;;;;;;;11.13;69.41;97857.81;104423;1269;95749;-83
2023/07/08 01:57:10;;;;;;;7.30;5.20;;;;;;;11.07;69.43;97857.55;104729;1266;96481;-82
2023/07/08 01:59:37;;;;;;;7.50;5.60;;;;;;;11.00;69.61;97855.95;104708;1277;96935;-82
2023/07/08 02:02:03;;;;;;;8.90;5.70;;;;;;;10.96;69.70;97857.48;104839;1271;102740;-82
2023/07/08 02:04:30;;;;;;;7.50;5.60;;;;;;;10.85;69.94;97854.73;104956;1260;95896;-82
2023/07/08 02:46:21;;;;;;;6.30;5.30;;;;;;;11.43;69.23;97870.72;101472;1298;642932;-86
2023/07/08 02:49:18;;;;;;;6.00;4.90;;;;;;;11.23;69.47;97875.80;103013;1295;96842;-89
2023/07/08 02:52:25;;;;;;;8.30;5.40;;;;;;;11.06;69.70;97874.71;102973;1289;96053;-85
2023/07/08 02:55:33;;;;;;;6.80;4.90;;;;;;;10.94;69.96;97874.83;101865;1300;99714;-87
2023/07/08 03:10:36;;;;;;;9.60;5.50;;;;;;;10.49;70.53;97891.95;102784;1287;636511;-82
2023/07/08 03:13:04;;;;;;;8.20;5.80;;;;;;;10.41;70.70;97887.91;104320;1280;95865;-82
2023/07/08 03:15:32;;;;;;;6.50;5.60;;;;;;;10.38;70.83;97889.77;104394;1271;96447;-81
2023/07/08 03:18:00;;;;;;;6.70;5.50;;;;;;;10.37;71.04;97894.80;104443;1270;100313;-82
2023/07/08 03:20:28;;;;;;;6.60;5.90;;;;;;;10.35;71.22;97889.96;104374;1270;100380;-81
2023/07/08 03:22:56;;;;;;;6.70;5.70;;;;;;;10.34;71.19;97895.84;104202;1266;98892;-81
2023/07/08 03:25:24;;;;;;;8.00;6.20;;;;;;;10.33;71.19;97900.86;104804;1256;113399;-82
2023/07/08 03:27:52;;;;;;;7.10;5.90;;;;;;;10.30;71.29;97902.62;104826;1262;95892;-82
2023/07/08 03:30:20;;;;;;;8.10;5.90;;;;;;;10.29;71.35;97904.43;104952;1259;100081;-82
2023/07/08 03:32:47;;;;;;;7.10;5.50;;;;;;;10.28;71.51;97905.84;105142;1259;100188;-82
2023/07/08 03:35:15;;;;;;;6.50;5.20;;;;;;;10.25;71.66;97904.80;104953;1256;100546;-82
2023/07/08 03:37:43;;;;;;;9.70;5.50;;;;;;;10.24;71.58;97903.77;104840;1259;96766;-82
2023/07/08 03:43:38;;;;;;;7.90;6.00;;;;;;;10.31;71.61;97902.91;102078;1305;642412;-82
2023/07/08 03:46:04;;;;;;;6.20;5.60;;;;;;;10.28;71.75;97900.19;104438;1273;95861;-81
2023/07/08 03:48:30;;;;;;;6.60;5.50;;;;;;;10.30;71.88;97896.02;104578;1269;96218;-82
2023/07/08 03:50:57;;;;;;;8.00;5.90;;;;;;;10.32;71.95;97893.42;104315;1273;100328;-82
2023/07/08 03:53:23;;;;;;;6.70;6.00;;;;;;;10.34;71.96;97894.15;104300;1280;95862;-82
2023/07/08 03:55:49;;;;;;;9.40;5.80;;;;;;;10.36;72.21;97889.31;104250;1270;230548;-81
2023/07/08 03:58:15;;;;;;;8.30;5.50;;;;;;;10.39;72.34;97891.92;104464;1264;96270;-81
2023/07/08 04:00:42;;;;;;;9.90;6.50;;;;;;;10.42;72.38;97891.77;104436;1267;100593;-81
2023/07/08 04:03:11;;;;;;;7.70;5.70;;;;;;;10.45;72.42;97890.97;104186;1279;95895;-81
2023/07/08 04:06:00;;;;;;;7.50;6.10;;;;;;;10.49;72.34;97891.52;102793;1285;635457;-82
2023/07/08 04:08:28;;;;;;;7.90;6.30;;;;;;;10.49;72.66;97889.96;104443;1282;95757;-82
2023/07/08 04:10:56;;;;;;;8.40;6.20;;;;;;;10.51;72.91;97885.92;104778;1272;96936;-82
2023/07/08 04:13:24;;;;;;;10.50;6.40;;;;;;;10.54;72.94;97888.40;104702;1260;100190;-82
2023/07/08 04:19:01;;;;;;;8.20;7.20;;;;;;;10.64;72.97;97882.77;102006;1299;636928;-82
2023/07/08 04:21:30;;;;;;;8.30;7.00;;;;;;;10.67;73.10;97872.88;107748;1268;93680;-83
2023/07/08 04:23:57;;;;;;;11.80;9.40;;;;;;;10.72;73.14;97868.39;107681;1269;93566;-83
2023/07/08 04:26:25;;;;;;;13.60;11.10;;;;;;;10.77;73.23;97869.48;107785;1268;99967;-83
2023/07/08 04:29:51;;;;;;;14.30;10.40;;;;;;;10.88;73.22;97867.30;102026;1295;643591;-82
2023/07/08 04:32:18;;;;;;;14.80;8.90;;;;;;;10.90;73.32;97865.42;104413;1267;95811;-83
2023/07/08 04:34:44;;;;;;;10.30;7.90;;;;;;;10.96;73.19;97862.76;104445;1283;95899;-82
2023/07/08 04:37:12;;;;;;;11.70;8.10;;;;;;;11.02;73.25;97862.93;104799;1275;108346;-83
2023/07/08 04:39:38;;;;;;;13.20;9.00;;;;;;;11.06;73.39;97865.77;104964;1263;100645;-82
2023/07/08 04:42:05;;;;;;;11.30;8.40;;;;;;;11.11;73.48;97869.86;104716;1264;160507;-82
2023/07/08 04:44:32;;;;;;;12.20;8.30;;;;;;;11.16;73.60;97864.73;104915;1258;95915;-82
2023/07/08 04:46:59;;;;;;;11.40;7.80;;;;;;;11.20;73.61;97864.12;104976;1260;95922;-82
2023/07/08 04:49:27;;;;;;;9.20;8.10;;;;;;;11.25;73.68;97865.28;105118;1261;96763;-82
2023/07/08 04:51:54;;;;;;;11.10;8.10;;;;;;;11.31;73.84;97858.61;105134;1257;95838;-82
2023/07/08 04:54:20;;;;;;;10.80;8.00;;;;;;;11.37;74.00;97858.28;104841;1260;96799;-82
2023/07/08 04:59:34;;;;;;;9.60;8.00;;;;;;;11.53;74.14;97858.60;101159;1297;635721;-80
2023/07/08 05:06:06;;;;;;;11.00;8.50;;;;;;;11.72;74.19;97861.07;101395;1295;638583;-79
2023/07/08 05:09:14;;;;;;;10.00;7.60;;;;;;;11.80;74.27;97856.77;104114;1273;97307;-80
2023/07/08 05:12:22;;;;;;;13.30;8.10;;;;;;;11.89;74.36;97854.65;103528;1280;97037;-78
2023/07/08 05:15:33;;;;;;;10.40;7.90;;;;;;;11.98;74.36;97850.06;102906;1281;99681;-81
2023/07/08 07:36:38;;;;;;;12.10;4.80;;;;;;;18.98;62.70;97787.84;105543;1266;99577;-79
2023/07/08 07:39:48;;;;;;;7.60;4.80;;;;;;;19.15;62.89;97786.94;106386;1264;101301;-78
2023/07/08 07:42:55;;;;;;;9.50;5.00;;;;;;;19.31;62.47;97784.30;105356;1267;98910;-76
2023/07/08 07:45:56;;;;;;;6.80;3.60;;;;;;;19.48;62.26;97783.08;104547;1272;95990;-77
2023/07/08 08:31:43;;;;;;;4.60;1.90;;;;;;;26.76;43.99;97778.06;106028;1260;94308;-85
2023/07/08 08:34:09;;;;;;;2.90;2.30;;;;;;;27.12;42.97;97772.98;106944;1248;98256;-84
2023/07/08 08:36:36;;;;;;;2.20;2.00;;;;;;;27.45;42.32;97769.94;106801;1251;95910;-84
2023/07/08 08:39:02;;;;;;;3.00;2.40;;;;;;;27.78;41.46;97767.13;107624;1248;96111;-82
2023/07/08 08:41:35;;;;;;;2.50;1.90;;;;;;;28.14;41.22;97766.98;107420;1244;95986;-82
2023/07/08 08:44:04;;;;;;;2.70;2.40;;;;;;;28.36;40.61;97765.67;107473;1251;101238;-80
2023/07/08 08:47:01;;;;;;;3.90;2.10;;;;;;;28.62;40.17;97759.73;107472;1238;101747;-83
2023/07/08 08:49:47;;;;;;;2.80;2.30;;;;;;;29.06;39.22;97759.55;107358;1253;100979;-83
2023/07/08 08:52:15;;;;;;;3.30;1.90;;;;;;;29.40;38.35;97753.27;107502;1242;96803;-81
2023/07/08 08:54:46;;;;;;;2.60;1.90;;;;;;;29.73;38.50;97752.13;107203;1244;96151;-83
2023/07/08 08:57:30;;;;;;;3.90;2.00;;;;;;;29.97;37.76;97753.75;107235;1244;95924;-83
2023/07/08 08:59:59;;;;;;;1.50;1.40;;;;;;;30.29;36.54;97754.13;107247;1244;102057;-82
2023/07/08 09:03:08;;;;;;;;;;;;;;;;;;;;;
2023/07/08 09:05:34;;;;;;;4.90;2.40;;;;;;;30.82;35.47;97750.29;107476;1246;95897;-81
2023/07/08 09:08:13;;;;;;;3.60;1.90;;;;;;;30.92;35.46;97749.03;107673;1242;95888;-80
2023/07/08 09:11:26;;;;;;;2.50;2.00;;;;;;;30.98;35.25;97746.90;108418;1244;101259;-82
2023/07/08 09:13:53;;;;;;;2.70;2.00;;;;;;;30.95;34.93;97743.83;107534;1240;100144;-83
2023/07/08 09:16:44;;;;;;;3.00;2.20;;;;;;;31.10;34.32;97748.36;108017;1247;96218;-81
2023/07/08 09:19:31;;;;;;;3.40;1.90;;;;;;;31.33;33.81;97747.08;108169;1240;96115;-82
2023/07/08 09:22:08;;;;;;;3.70;1.70;;;;;;;31.47;33.16;97748.89;108062;1236;96724;-80
2023/07/08 09:25:09;;;;;;;2.70;2.00;;;;;;;31.30;32.53;97750.55;108029;1238;101484;-84
2023/07/08 09:27:35;;;;;;;3.10;1.70;;;;;;;31.64;32.24;97741.52;107894;1244;109417;-81
2023/07/08 09:30:02;;;;;;;2.80;1.90;;;;;;;31.92;31.63;97737.63;108253;1232;95876;-80
2023/07/08 09:32:29;;;;;;;3.20;1.70;;;;;;;32.17;31.14;97735.88;108301;1235;95824;-83
2023/07/08 09:35:04;;;;;;;3.60;1.90;;;;;;;32.44;30.49;97733.64;108295;1235;95917;-81
2023/07/08 09:37:38;;;;;;;2.60;2.20;;;;;;;32.65;30.27;97734.15;108321;1235;100038;-79
2023/07/08 09:40:16;;;;;;;3.20;1.90;;;;;;;32.74;30.22;97733.10;108338;1231;102089;-83
2023/07/08 09:42:47;;;;;;;3.90;2.10;;;;;;;32.73;30.04;97732.50;108288;1231;100708;-80
2023/07/08 09:45:16;;;;;;;5.50;2.20;;;;;;;32.83;29.42;97732.46;108131;1245;96621;-80
2023/07/08 09:47:45;;;;;;;2.60;2.10;;;;;;;32.95;29.02;97729.50;108363;1237;95818;-79
2023/07/08 09:50:21;;;;;;;3.90;2.10;;;;;;;32.93;29.32;97731.52;108332;1235;99798;-79
2023/07/08 09:52:49;;;;;;;1.80;1.70;;;;;;;32.91;29.22;97733.19;108403;1232;102179;-79
2023/07/08 09:55:16;;;;;;;5.10;2.30;;;;;;;32.82;29.01;97727.25;108339;1232;101094;-84
2023/07/08 09:57:46;;;;;;;4.10;2.40;;;;;;;32.83;28.83;97726.32;108344;1243;95847;-79
2023/07/08 10:00:15;;;;;;;4.10;2.10;;;;;;;32.79;29.11;97727.05;108379;1234;95842;-83
2023/07/08 10:02:51;;;;;;;4.10;2.30;;;;;;;32.76;28.89;97720.55;108332;1235;101493;-81
2023/07/08 10:05:24;;;;;;;2.10;1.70;;;;;;;32.80;28.39;97718.47;108327;1241;102159;-81
2023/07/08 10:07:55;;;;;;;8.30;2.90;;;;;;;32.89;27.86;97720.29;108226;1235;101043;-80
2023/07/08 10:10:30;;;;;;;2.40;1.90;;;;;;;32.97;28.01;97719.71;108173;1243;96624;-79
2023/07/08 10:13:00;;;;;;;6.80;2.10;;;;;;;32.98;27.72;97713.27;108209;1235;95823;-84
2023/07/08 10:15:38;;;;;;;4.90;2.40;;;;;;;32.92;28.17;97714.21;107307;1246;100259;-81
2023/07/08 10:18:07;;;;;;;1.80;1.60;;;;;;;32.81;28.11;97713.32;107701;1232;102092;-81
2023/07/08 10:20:46;;;;;;;4.80;1.80;;;;;;;32.72;28.55;97715.03;108052;1238;100948;-82
2023/07/08 10:23:22;;;;;;;1.90;1.80;;;;;;;32.65;28.01;97715.52;108301;1235;96282;-82
2023/07/08 10:26:04;;;;;;;2.90;2.00;;;;;;;32.63;28.18;97713.85;108434;1244;95767;-82
2023/07/08 10:28:30;;;;;;;2.20;1.90;;;;;;;32.54;28.37;97707.67;107624;1231;101199;-84
2023/07/08 10:30:59;;;;;;;2.30;2.10;;;;;;;32.47;28.11;97703.66;108336;1238;96081;-79
2023/07/08 10:33:53;;;;;;;2.30;2.00;;;;;;;32.44;28.72;97702.75;108338;1241;100592;-79
2023/07/08 10:36:42;;;;;;;4.60;3.00;;;;;;;32.45;28.99;97703.85;108325;1235;95920;-80
2023/07/08 10:39:43;;;;;;;6.00;3.90;;;;;;;32.45;29.24;97701.29;108355;1231;97068;-79
2023/07/08 10:42:53;;;;;;;2.40;2.20;;;;;;;32.44;28.93;97702.70;108357;1243;101476;-80
2023/07/08 10:45:45;;;;;;;6.20;2.40;;;;;;;32.46;28.64;97698.94;107693;1241;102163;-80
2023/07/08 10:48:17;;;;;;;2.00;1.80;;;;;;;32.48;27.94;97695.08;108060;1239;99004;-80
2023/07/08 10:51:02;;;;;;;2.50;2.20;;;;;;;32.41;28.45;97692.77;108280;1246;95882;-83
2023/07/08 10:53:54;;;;;;;5.60;2.40;;;;;;;32.26;27.88;97686.17;108675;1232;95769;-81
2023/07/08 10:56:37;;;;;;;2.40;1.90;;;;;;;32.28;27.99;97687.35;108389;1245;100174;-81
2023/07/08 10:59:31;;;;;;;4.20;2.50;;;;;;;32.20;28.28;97681.63;108378;1236;102097;-82
2023/07/08 11:02:09;;;;;;;4.50;2.20;;;;;;;32.16;28.55;97678.67;108323;1242;100873;-80
2023/07/08 11:04:43;;;;;;;3.90;2.50;;;;;;;32.15;28.60;97675.45;108343;1232;96693;-82
2023/07/08 11:07:17;;;;;;;3.80;2.20;;;;;;;32.23;28.92;97671.13;108349;1243;96762;-83
2023/07/08 11:10:01;;;;;;;2.60;2.30;;;;;;;32.35;28.20;97671.46;108395;1235;101471;-82
2023/07/08 11:12:39;;;;;;;2.50;1.90;;;;;;;32.42;28.28;97670.91;107857;1231;101824;-83
2023/07/08 11:15:25;;;;;;;2.80;1.60;;;;;;;32.44;28.44;97671.71;108515;1238;100548;-81
2023/07/08 11:18:01;;;;;;;2.70;1.80;;;;;;;32.37;28.67;97670.91;107806;1239;95847;-80
2023/07/08 11:20:59;;;;;;;1.80;1.60;;;;;;;32.21;28.85;97669.32;108408;1235;95833;-81
2023/07/08 11:23:41;;;;;;;3.20;2.10;;;;;;;32.14;28.62;97670.95;108346;1237;99689;-80
2023/07/08 11:26:26;;;;;;;5.40;2.10;;;;;;;32.20;28.10;97667.92;108222;1232;102106;-80
2023/07/08 11:28:56;;;;;;;3.80;2.00;;;;;;;32.27;28.01;97665.47;108207;1243;98896;-81
2023/07/08 11:31:25;;;;;;;2.80;2.10;;;;;;;32.26;27.72;97663.27;107908;1239;96738;-79
2023/07/08 11:33:54;;;;;;;5.10;2.00;;;;;;;32.32;27.63;97663.16;108038;1240;96167;-79
2023/07/08 11:36:22;;;;;;;2.40;1.90;;;;;;;32.20;26.85;97662.59;107796;1241;101654;-78
2023/07/08 11:38:55;;;;;;;2.20;1.70;;;;;;;31.81;27.06;97656.55;108298;1244;100281;-82
2023/07/08 11:41:24;;;;;;;3.20;1.70;;;;;;;31.81;27.20;97657.97;107854;1231;100754;-80
2023/07/08 11:44:03;;;;;;;1.80;1.70;;;;;;;31.95;27.17;97656.98;108384;1231;95896;-81
2023/07/08 11:46:31;;;;;;;4.10;1.80;;;;;;;31.93;26.88;97654.50;107998;1232;96206;-81
2023/07/08 11:49:05;;;;;;;2.70;2.00;;;;;;;31.87;27.15;97657.64;108350;1235;101625;-83
2023/07/08 11:51:38;;;;;;;2.00;1.80;;;;;;;31.94;26.71;97657.80;108056;1246;100154;-81
2023/07/08 11:54:04;;;;;;;6.40;1.70;;;;;;;31.99;26.82;97651.68;108005;1232;100437;-82
2023/07/08 11:56:50;;;;;;;2.80;2.00;;;;;;;31.99;27.08;97649.77;108314;1236;96638;-83
2023/07/08 11:59:20;;;;;;;4.90;2.00;;;;;;;31.97;26.83;97640.83;108358;1237;96482;-78
2023/07/08 12:01:53;;;;;;;2.00;1.90;;;;;;;31.90;27.05;97638.51;108246;1235;101504;-81
2023/07/08 12:04:25;;;;;;;4.50;2.10;;;;;;;31.92;27.16;97641.77;108207;1235;101961;-81
2023/07/08 12:07:23;;;;;;;4.30;1.90;;;;;;;32.01;26.88;97643.46;108311;1243;98835;-83
2023/07/08 12:10:05;;;;;;;2.60;1.80;;;;;;;32.06;27.11;97636.90;107752;1244;96947;-83
2023/07/08 12:12:36;;;;;;;2.70;2.00;;;;;;;32.07;27.10;97632.59;107801;1234;96510;-81
2023/07/08 12:15:30;;;;;;;2.70;1.90;;;;;;;32.15;26.62;97633.71;108285;1240;101320;-82
2023/07/08 12:18:01;;;;;;;2.90;1.60;;;;;;;32.17;26.34;97630.88;107496;1242;102331;-81
2023/07/08 12:20:32;;;;;;;2.00;1.80;;;;;;;32.18;25.98;97627.80;108380;1243;100724;-80
2023/07/08 12:22:59;;;;;;;2.60;1.60;;;;;;;31.83;25.26;97628.15;108245;1244;96133;-79
2023/07/08 12:25:34;;;;;;;4.60;1.60;;;;;;;31.81;25.67;97627.85;108246;1235;95852;-78
2023/07/08 12:28:02;;;;;;;2.60;1.80;;;;;;;31.95;26.09;97624.32;108033;1242;101654;-79
2023/07/08 12:30:30;;;;;;;1.60;1.50;;;;;;;32.06;25.84;97621.20;107798;1246;97046;-78
2023/07/08 12:32:59;;;;;;;2.00;1.60;;;;;;;32.03;26.10;97616.23;108237;1237;100715;-79
2023/07/08 12:35:30;;;;;;;2.70;1.60;;;;;;;32.11;25.59;97618.02;108275;1235;97068;-80
2023/07/08 12:38:03;;;;;;;1.90;1.70;;;;;;;32.22;25.61;97620.35;108220;1235;96620;-81
2023/07/08 12:40:30;;;;;;;1.90;1.70;;;;;;;32.29;25.14;97617.54;108271;1244;102863;-81
2023/07/08 12:42:59;;;;;;;1.70;1.60;;;;;;;32.26;25.53;97619.45;108200;1242;96720;-79
2023/07/08 12:45:30;;;;;;;2.30;1.90;;;;;;;32.33;25.70;97620.19;108245;1237;100574;-78
2023/07/08 12:47:56;;;;;;;2.10;1.90;;;;;;;32.37;26.06;97622.79;108239;1231;96563;-83
2023/07/08 12:50:23;;;;;;;1.90;1.70;;;;;;;32.33;25.71;97622.58;108227;1245;97421;-77
2023/07/08 12:52:49;;;;;;;2.60;1.40;;;;;;;32.17;25.70;97618.18;108191;1235;96601;-79
2023/07/08 12:55:16;;;;;;;2.60;1.50;;;;;;;32.15;25.99;97616.25;108269;1235;97742;-78
2023/07/08 12:57:49;;;;;;;2.00;1.60;;;;;;;32.16;25.30;97611.93;107814;1246;97692;-79
2023/07/08 13:00:25;;;;;;;2.50;1.50;;;;;;;32.02;25.17;97611.17;108201;1242;97439;-80
2023/07/08 13:03:08;;;;;;;1.60;1.50;;;;;;;31.92;25.79;97610.27;108164;1235;110563;-78
2023/07/08 13:05:35;;;;;;;3.80;1.80;;;;;;;31.88;25.83;97612.27;108202;1235;100026;-79
2023/07/08 13:08:01;;;;;;;1.90;1.80;;;;;;;31.95;26.12;97603.44;108176;1235;96652;-78
2023/07/08 13:10:30;;;;;;;2.60;1.70;;;;;;;31.99;26.39;97602.02;108201;1240;96965;-77
2023/07/08 13:13:00;;;;;;;3.60;2.20;;;;;;;31.99;26.73;97605.89;108204;1236;96528;-78
2023/07/08 13:15:39;;;;;;;1.80;1.70;;;;;;;31.92;26.85;97599.66;108206;1235;102894;-80
2023/07/08 13:18:16;;;;;;;1.60;1.50;;;;;;;31.76;26.83;97600.23;108042;1237;102023;-79
2023/07/08 13:20:47;;;;;;;2.00;1.80;;;;;;;31.60;26.67;97597.70;108226;1235;100703;-78
2023/07/08 13:23:14;;;;;;;1.70;1.60;;;;;;;31.56;26.43;97600.27;108295;1232;97302;-81
2023/07/08 13:25:43;;;;;;;2.60;1.60;;;;;;;31.40;26.26;97594.98;108315;1242;96509;-78
2023/07/08 13:28:45;;;;;;;3.00;1.60;;;;;;;31.36;26.53;97594.91;107722;1241;101242;-78
2023/07/08 13:31:23;;;;;;;2.20;1.60;;;;;;;31.52;27.17;97594.96;108016;1234;102154;-78
2023/07/08 13:33:54;;;;;;;3.00;1.50;;;;;;;31.72;27.70;97599.52;108033;1234;100824;-77
2023/07/08 13:36:35;;;;;;;3.00;1.60;;;;;;;31.90;27.91;97598.40;107564;1248;96601;-80
2023/07/08 13:39:09;;;;;;;4.70;1.90;;;;;;;32.00;27.11;97595.38;107837;1238;97756;-78
2023/07/08 13:41:37;;;;;;;4.90;3.00;;;;;;;32.03;27.03;97591.90;107962;1238;102848;-81
2023/07/08 13:44:08;;;;;;;4.30;2.00;;;;;;;32.03;26.69;97586.64;107943;1241;100125;-78
2023/07/08 13:46:52;;;;;;;1.80;1.70;;;;;;;31.96;26.69;97586.80;108058;1239;100623;-80
2023/07/08 13:49:41;;;;;;;2.20;1.90;;;;;;;31.85;26.54;97584.33;108226;1235;96587;-81
2023/07/08 13:52:09;;;;;;;2.40;2.00;;;;;;;31.84;27.05;97581.92;108260;1231;97336;-78
2023/07/08 13:54:46;;;;;;;4.90;2.90;;;;;;;31.92;27.17;97584.09;108244;1243;103181;-80
2023/07/08 13:57:17;;;;;;;4.60;3.20;;;;;;;31.86;27.10;97580.65;108283;1236;100194;-80
2023/07/08 13:59:43;;;;;;;4.10;2.50;;;;;;;31.89;27.15;97580.02;108253;1245;100773;-81
2023/07/08 14:02:24;;;;;;;3.80;1.70;;;;;;;31.83;26.82;97580.84;108246;1235;97423;-82
2023/07/08 14:04:53;;;;;;;2.50;1.80;;;;;;;31.69;26.13;97581.94;108245;1241;97647;-78
2023/07/08 14:07:26;;;;;;;2.20;2.00;;;;;;;31.56;26.40;97584.02;108296;1244;101034;-78
2023/07/08 14:09:54;;;;;;;2.10;1.90;;;;;;;31.57;26.79;97584.34;108289;1235;102131;-78
2023/07/08 14:12:21;;;;;;;3.00;1.70;;;;;;;31.54;26.62;97581.45;107845;1240;100650;-79
2023/07/08 14:14:48;;;;;;;4.80;1.90;;;;;;;31.47;26.30;97580.89;107874;1238;97431;-82
2023/07/08 14:17:27;;;;;;;1.70;1.60;;;;;;;31.54;26.52;97581.84;108259;1232;96551;-80
2023/07/08 14:19:54;;;;;;;2.70;1.90;;;;;;;31.58;26.68;97581.86;108285;1235;102873;-81
2023/07/08 14:22:24;;;;;;;2.00;1.80;;;;;;;31.31;26.51;97579.73;108245;1243;96545;-80
2023/07/08 14:24:51;;;;;;;4.90;1.80;;;;;;;31.30;27.55;97581.67;108207;1235;100274;-78
2023/07/08 14:27:19;;;;;;;3.20;1.50;;;;;;;31.36;27.36;97582.24;107710;1238;97503;-78
2023/07/08 14:29:50;;;;;;;2.20;1.70;;;;;;;31.38;26.98;97578.75;107823;1238;97749;-79
2023/07/08 14:32:27;;;;;;;1.80;1.60;;;;;;;31.27;27.13;97575.30;107918;1238;102942;-79
2023/07/08 14:34:55;;;;;;;6.00;2.00;;;;;;;31.11;26.78;97576.05;107828;1235;100186;-78
2023/07/08 14:37:22;;;;;;;5.20;1.90;;;;;;;31.05;27.09;97576.40;107939;1240;100623;-79
2023/07/08 14:39:49;;;;;;;1.70;1.60;;;;;;;31.06;27.19;97572.73;107885;1235;97379;-80
2023/07/08 14:42:18;;;;;;;4.10;2.00;;;;;;;31.03;27.10;97570.40;107908;1239;97665;-79
2023/07/08 14:44:49;;;;;;;3.20;1.70;;;;;;;30.99;26.90;97573.02;108249;1231;96596;-77
2023/07/08 14:47:18;;;;;;;3.70;1.80;;;;;;;31.04;27.62;97573.93;108227;1238;102034;-80
2023/07/08 14:49:45;;;;;;;3.30;1.90;;;;;;;31.13;27.16;97569.36;107881;1244;101607;-78
2023/07/08 14:52:12;;;;;;;4.50;1.90;;;;;;;31.05;27.22;97570.48;108199;1234;96464;-77
2023/07/08 14:54:42;;;;;;;2.80;1.80;;;;;;;31.04;27.18;97569.61;107848;1232;98291;-78
2023/07/08 14:57:15;;;;;;;3.50;2.30;;;;;;;30.95;26.91;97569.35;108348;1231;101228;-78
2023/07/08 14:59:41;;;;;;;2.20;2.00;;;;;;;30.87;26.86;97567.92;108266;1234;109793;-80
2023/07/08 15:02:18;;;;;;;2.20;1.80;;;;;;;30.85;27.38;97565.79;108276;1234;96759;-79
2023/07/08 15:04:45;;;;;;;1.90;1.70;;;;;;;30.87;27.79;97562.52;107796;1232;97153;-79
2023/07/08 15:07:11;;;;;;;4.40;2.20;;;;;;;30.96;28.04;97561.34;108284;1234;96618;-79
2023/07/08 15:09:38;;;;;;;4.00;1.90;;;;;;;30.98;27.84;97561.45;108020;1239;96681;-81
2023/07/08 15:12:05;;;;;;;3.70;2.10;;;;;;;30.97;27.83;97563.06;108328;1243;97299;-79
2023/07/08 15:14:32;;;;;;;2.40;2.20;;;;;;;30.94;27.39;97558.23;108372;1242;97398;-79
2023/07/08 15:16:59;;;;;;;5.70;2.10;;;;;;;30.94;27.91;97560.88;107784;1235;97111;-78
2023/07/08 15:19:25;;;;;;;8.70;2.20;;;;;;;31.02;28.17;97560.95;108265;1235;96556;-80
2023/07/08 15:21:51;;;;;;;4.40;2.30;;;;;;;31.04;27.84;97554.70;108258;1232;97753;-81
2023/07/08 15:24:18;;;;;;;6.20;2.50;;;;;;;31.01;27.80;97555.01;108305;1231;96607;-79
2023/07/08 15:26:56;;;;;;;4.70;2.60;;;;;;;30.96;27.60;97554.84;108257;1232;97009;-81
2023/07/08 15:29:27;;;;;;;7.90;2.80;;;;;;;30.85;27.67;97555.27;108035;1245;102910;-80
2023/07/08 15:31:53;;;;;;;4.90;2.40;;;;;;;30.73;27.79;97557.51;108233;1231;101640;-77
2023/07/08 15:34:22;;;;;;;4.90;2.10;;;;;;;30.68;28.20;97555.17;107756;1239;97590;-81
2023/07/08 15:36:49;;;;;;;3.10;2.80;;;;;;;30.67;28.28;97553.84;107384;1242;96651;-80
2023/07/08 15:39:16;;;;;;;5.50;3.20;;;;;;;30.67;28.20;97552.58;107335;1244;96720;-81
2023/07/08 15:41:46;;;;;;;3.30;2.30;;;;;;;30.63;28.19;97553.52;107633;1240;97722;-81
2023/07/08 15:44:14;;;;;;;2.90;2.30;;;;;;;30.65;28.26;97555.31;107462;1236;107613;-81
2023/07/08 15:46:47;;;;;;;3.90;2.10;;;;;;;30.54;28.19;97560.98;107655;1246;106696;-80
2023/07/08 15:49:16;;;;;;;3.50;2.20;;;;;;;30.48;28.72;97558.16;107590;1243;96579;-78
2023/07/08 15:51:43;;;;;;;3.40;2.10;;;;;;;30.47;28.72;97559.60;107685;1238;97443;-78
2023/07/08 15:54:11;;;;;;;2.90;2.50;;;;;;;30.49;28.89;97560.55;107759;1245;96584;-81
2023/07/08 15:56:39;;;;;;;3.20;2.20;;;;;;;30.44;28.77;97561.44;107796;1246;96711;-79
2023/07/08 15:59:09;;;;;;;3.00;2.20;;;;;;;30.41;28.98;97558.47;107344;1242;96614;-78
2023/07/08 16:01:36;;;;;;;2.50;2.30;;;;;;;30.33;28.79;97558.75;107415;1235;97631;-78
2023/07/08 16:04:03;;;;;;;4.60;2.40;;;;;;;30.26;29.01;97564.35;107790;1239;97154;-78
2023/07/08 16:06:29;;;;;;;2.70;2.00;;;;;;;30.26;28.88;97561.56;108101;1238;97634;-79
2023/07/08 16:08:56;;;;;;;4.30;2.20;;;;;;;30.25;28.87;97561.77;108223;1234;96602;-79
2023/07/08 16:11:29;;;;;;;2.90;2.00;;;;;;;30.15;28.80;97561.13;108265;1234;97501;-80
2023/07/08 16:13:56;;;;;;;2.70;1.90;;;;;;;30.06;28.78;97561.70;107781;1232;97430;-78
2023/07/08 16:16:25;;;;;;;5.90;2.10;;;;;;;30.01;29.12;97561.81;108231;1237;96730;-78
2023/07/08 16:18:52;;;;;;;7.10;2.10;;;;;;;29.91;28.36;97560.48;107791;1239;102390;-79
2023/07/08 18:58:00;;;;;;;8.80;5.10;;;;;;;21.81;44.79;97608.42;105281;1268;98560;-74
2023/07/08 19:00:36;;;;;;;11.00;7.60;;;;;;;21.66;44.82;97611.80;107074;1246;96116;-78